Time;durP1;ratioP1;P1;durP2;ratioP2;P2;SDS_P1;SDS_P2;PMS_P1;PMS_P2;Temp;Humidity;BMP_temperature;BMP_pressure;BME280_temperature;BME280_humidity;BME280_pressure;Samples;Min_cycle;Max_cycle;Signal;HPM_P1;HPM_P2
2022/12/09 00:00:17;;;;;;;2.58;1.60;;;6.30;90.30;;;;;;5012939;28;20274;-74
2022/12/09 00:02:47;;;;;;;1.85;1.52;;;6.30;90.30;;;;;;5015880;28;20317;-73
2022/12/09 00:05:16;;;;;;;2.38;1.83;;;6.30;90.30;;;;;;5018880;28;20198;-73
2022/12/09 00:07:44;;;;;;;3.22;1.83;;;6.30;90.30;;;;;;5016229;28;20222;-73
2022/12/09 00:10:13;;;;;;;2.05;1.63;;;6.30;90.30;;;;;;5012186;28;20206;-72
2022/12/09 00:12:42;;;;;;;1.65;1.55;;;6.30;90.20;;;;;;5008519;28;20562;-73
2022/12/09 00:15:11;;;;;;;2.20;2.00;;;6.20;90.20;;;;;;5010003;28;20213;-73
2022/12/09 00:17:48;;;;;;;2.10;1.48;;;6.20;90.20;;;;;;5014762;28;20280;-73
2022/12/09 00:20:16;;;;;;;2.60;2.10;;;6.20;90.20;;;;;;5007851;28;20284;-72
2022/12/09 00:22:45;;;;;;;4.10;2.55;;;6.20;90.20;;;;;;5008735;28;20225;-72
2022/12/09 00:25:13;;;;;;;2.60;1.88;;;6.20;90.20;;;;;;5007495;28;20205;-73
2022/12/09 00:27:42;;;;;;;2.00;1.90;;;6.20;90.20;;;;;;4994554;28;20241;-72
2022/12/09 00:30:11;;;;;;;5.35;2.60;;;6.20;90.20;;;;;;5018985;28;20194;-75
2022/12/09 00:32:40;;;;;;;2.30;1.63;;;6.20;90.10;;;;;;5007801;28;20201;-74
2022/12/09 00:35:10;;;;;;;2.83;2.00;;;6.20;90.20;;;;;;5007603;28;20293;-74
2022/12/09 00:37:38;;;;;;;1.23;1.10;;;6.20;90.20;;;;;;5007443;28;20225;-74
2022/12/09 00:40:09;;;;;;;2.63;2.10;;;6.20;90.20;;;;;;5006703;28;20206;-73
2022/12/09 00:42:38;;;;;;;6.03;2.15;;;6.20;90.20;;;;;;5009067;28;20385;-73
2022/12/09 00:45:08;;;;;;;2.65;1.75;;;6.20;90.20;;;;;;5014463;28;20202;-75
2022/12/09 00:47:37;;;;;;;2.22;1.73;;;6.20;90.20;;;;;;5019199;28;20217;-73
2022/12/09 00:50:07;;;;;;;2.15;1.85;;;6.20;90.20;;;;;;5014429;28;20198;-73
2022/12/09 00:52:37;;;;;;;2.08;1.60;;;6.20;90.20;;;;;;5015626;28;21376;-73
2022/12/09 00:55:06;;;;;;;2.42;1.88;;;6.20;90.20;;;;;;4991256;28;20296;-73
2022/12/09 00:57:35;;;;;;;2.50;1.60;;;6.20;90.20;;;;;;5002258;28;20218;-73
2022/12/09 01:00:05;;;;;;;2.20;1.63;;;6.20;90.20;;;;;;5009356;28;20730;-73
2022/12/09 01:02:35;;;;;;;1.98;1.48;;;6.20;90.20;;;;;;5007594;28;20804;-74
2022/12/09 01:05:04;;;;;;;2.33;1.30;;;6.20;90.20;;;;;;5005029;28;20298;-73
2022/12/09 01:07:36;;;;;;;2.10;1.77;;;6.20;90.20;;;;;;5003863;28;20629;-74
2022/12/09 01:10:07;;;;;;;2.10;1.90;;;6.20;90.20;;;;;;5007861;28;20298;-73
2022/12/09 01:12:37;;;;;;;4.70;2.35;;;6.20;90.20;;;;;;5007864;28;20257;-73
2022/12/09 01:15:07;;;;;;;2.05;1.90;;;6.20;90.20;;;;;;5005980;28;20640;-73
2022/12/09 01:17:36;;;;;;;2.40;1.95;;;6.20;90.20;;;;;;5007772;28;20222;-73
2022/12/09 01:20:07;;;;;;;2.20;2.00;;;6.20;90.20;;;;;;5006858;28;20300;-73
2022/12/09 01:22:36;;;;;;;1.95;1.75;;;6.20;90.20;;;;;;5016633;28;20238;-73
2022/12/09 01:25:06;;;;;;;2.88;2.30;;;6.20;90.20;;;;;;5006284;28;20843;-72
2022/12/09 01:27:35;;;;;;;2.90;1.95;;;6.20;90.20;;;;;;5006681;28;20226;-72
2022/12/09 01:30:05;;;;;;;3.97;1.88;;;6.10;90.20;;;;;;5005729;28;20336;-72
2022/12/09 01:32:34;;;;;;;2.35;2.05;;;6.10;90.20;;;;;;5005823;28;20222;-73
2022/12/09 01:35:04;;;;;;;2.17;1.98;;;6.10;90.10;;;;;;5008059;28;20194;-72
2022/12/09 01:37:33;;;;;;;2.40;2.05;;;6.10;90.10;;;;;;5006350;28;20479;-73
2022/12/09 01:40:05;;;;;;;2.08;1.85;;;6.10;90.10;;;;;;5006835;28;20309;-73
2022/12/09 01:42:35;;;;;;;3.08;1.70;;;6.10;90.10;;;;;;5014108;28;20240;-73
2022/12/09 01:45:40;;;;;;;3.05;1.70;;;6.10;90.10;;;;;;5005787;28;20233;-73
2022/12/09 01:48:12;;;;;;;2.00;1.85;;;6.10;90.10;;;;;;4999618;28;20237;-74
2022/12/09 01:50:47;;;;;;;2.45;1.92;;;6.10;90.10;;;;;;5006540;28;20198;-73
2022/12/09 01:53:18;;;;;;;2.30;2.08;;;6.10;90.60;;;;;;5005333;28;20226;-76
2022/12/09 01:55:47;;;;;;;3.40;1.80;;;6.10;90.10;;;;;;5015902;28;20197;-73
2022/12/09 01:58:19;;;;;;;2.47;2.03;;;6.10;90.10;;;;;;5005511;28;20904;-73
2022/12/09 02:00:48;;;;;;;3.03;2.00;;;6.10;90.20;;;;;;5004593;28;20201;-73
2022/12/09 02:03:21;;;;;;;2.88;2.10;;;6.10;90.10;;;;;;5003511;28;20226;-72
2022/12/09 02:05:50;;;;;;;2.05;1.70;;;6.10;90.10;;;;;;5006358;28;20190;-74
2022/12/09 02:08:19;;;;;;;1.92;1.83;;;6.10;90.20;;;;;;5003812;28;20233;-74
2022/12/09 02:11:01;;;;;;;2.55;1.90;;;6.10;90.10;;;;;;5006203;28;20289;-73
2022/12/09 02:13:39;;;;;;;2.60;2.40;;;6.10;90.10;;;;;;5015508;28;20220;-73
2022/12/09 02:16:13;;;;;;;3.63;2.05;;;6.10;90.60;;;;;;5010593;28;20232;-73
2022/12/09 02:18:51;;;;;;;2.38;2.00;;;6.10;90.10;;;;;;5000367;28;20323;-73
2022/12/09 02:21:29;;;;;;;3.10;2.00;;;6.10;90.10;;;;;;5008483;28;20197;-73
2022/12/09 02:24:03;;;;;;;2.08;1.80;;;6.10;90.10;;;;;;5009697;28;20271;-76
2022/12/09 02:26:42;;;;;;;2.45;1.85;;;6.10;90.10;;;;;;5017263;28;20653;-74
2022/12/09 02:29:32;;;;;;;2.55;2.30;;;6.10;90.10;;;;;;5013015;28;20223;-73
2022/12/09 02:32:25;;;;;;;2.08;1.70;;;6.10;90.20;;;;;;5004773;28;20210;-72
2022/12/09 02:35:00;;;;;;;3.35;1.85;;;6.10;90.10;;;;;;5002817;28;20201;-72
2022/12/09 02:37:38;;;;;;;2.15;1.40;;;6.10;90.10;;;;;;5007105;28;20249;-73
2022/12/09 02:40:15;;;;;;;1.80;1.50;;;6.10;90.10;;;;;;4997745;28;20229;-73
2022/12/09 02:42:46;;;;;;;3.50;2.00;;;6.10;90.20;;;;;;4998316;28;20601;-73
2022/12/09 02:45:16;;;;;;;2.45;1.83;;;6.10;90.10;;;;;;5013460;28;20277;-72
2022/12/09 02:47:52;;;;;;;2.13;1.60;;;6.10;90.10;;;;;;5015530;28;20221;-73
2022/12/09 02:50:27;;;;;;;2.33;1.95;;;6.00;90.10;;;;;;5023848;28;20278;-73
2022/12/09 02:53:01;;;;;;;2.85;1.80;;;6.10;90.10;;;;;;5004096;28;20251;-73
2022/12/09 02:55:35;;;;;;;1.83;1.60;;;6.10;90.10;;;;;;5006414;28;20624;-73
2022/12/09 02:58:04;;;;;;;2.20;1.75;;;6.00;90.10;;;;;;5004871;28;20217;-73
2022/12/09 03:00:37;;;;;;;1.98;1.65;;;6.00;90.10;;;;;;5026324;28;20574;-73
2022/12/09 03:03:11;;;;;;;2.08;1.95;;;6.00;90.10;;;;;;4989713;28;20205;-74
2022/12/09 03:05:50;;;;;;;2.22;2.05;;;6.00;90.10;;;;;;5007192;28;20229;-74
2022/12/09 03:08:30;;;;;;;1.70;1.50;;;6.00;90.10;;;;;;5005118;28;20233;-72
2022/12/09 03:11:03;;;;;;;2.03;1.80;;;6.00;90.10;;;;;;5005377;28;20213;-73
2022/12/09 03:13:49;;;;;;;1.65;1.55;;;6.00;90.00;;;;;;5013304;28;20705;-73
2022/12/09 03:16:23;;;;;;;1.98;1.80;;;6.00;90.10;;;;;;5019961;28;20259;-72
2022/12/09 03:18:58;;;;;;;2.60;1.88;;;6.00;90.10;;;;;;5009658;28;20221;-73
2022/12/09 03:21:31;;;;;;;2.17;1.80;;;6.00;90.10;;;;;;5007671;28;20571;-73
2022/12/09 03:24:01;;;;;;;3.30;2.30;;;6.00;90.10;;;;;;5013375;28;20222;-73
2022/12/09 03:26:33;;;;;;;2.63;2.20;;;6.00;90.00;;;;;;5005385;28;20206;-73
2022/12/09 03:29:05;;;;;;;1.67;1.52;;;6.00;90.10;;;;;;5002998;28;20225;-73
2022/12/09 03:31:35;;;;;;;2.90;2.40;;;6.00;90.10;;;;;;5009184;28;20305;-73
2022/12/09 03:34:07;;;;;;;2.80;1.98;;;6.00;90.00;;;;;;5008675;28;20226;-73
2022/12/09 03:36:40;;;;;;;2.33;1.80;;;6.00;90.00;;;;;;5010580;28;20281;-72
2022/12/09 03:39:13;;;;;;;2.35;1.60;;;6.00;90.10;;;;;;5006781;28;20371;-72
2022/12/09 03:41:48;;;;;;;2.50;1.50;;;6.00;90.00;;;;;;5012713;28;20201;-72
2022/12/09 03:44:22;;;;;;;1.70;1.60;;;6.00;90.10;;;;;;5018393;28;20605;-74
2022/12/09 03:46:51;;;;;;;3.55;2.22;;;6.00;90.00;;;;;;5012020;28;20217;-73
2022/12/09 03:49:20;;;;;;;2.65;2.00;;;6.00;90.00;;;;;;5009151;28;20214;-72
2022/12/09 03:51:57;;;;;;;1.67;1.58;;;6.00;90.10;;;;;;5008712;28;20233;-72
2022/12/09 03:54:30;;;;;;;2.78;2.00;;;6.00;90.10;;;;;;5006768;28;20296;-73
2022/12/09 03:57:00;;;;;;;4.68;2.70;;;6.00;90.00;;;;;;5008804;28;20245;-73
2022/12/09 03:59:33;;;;;;;2.45;1.95;;;6.00;90.00;;;;;;5011309;28;20801;-74
2022/12/09 04:02:05;;;;;;;1.80;1.70;;;6.00;90.00;;;;;;5007567;28;20267;-73
2022/12/09 04:04:38;;;;;;;2.15;1.90;;;6.00;90.00;;;;;;5018699;28;20194;-75
2022/12/09 04:07:10;;;;;;;3.80;2.25;;;6.00;90.00;;;;;;5021250;28;20837;-72
2022/12/09 04:09:41;;;;;;;3.28;2.22;;;6.00;90.00;;;;;;5007481;28;20194;-73
2022/12/09 04:12:11;;;;;;;2.25;1.67;;;6.00;90.00;;;;;;5008834;28;20274;-73
2022/12/09 04:14:39;;;;;;;3.22;2.33;;;5.90;90.00;;;;;;5007314;28;20229;-74
2022/12/09 04:17:08;;;;;;;2.50;2.30;;;6.00;90.10;;;;;;5022265;28;20625;-73
2022/12/09 04:19:38;;;;;;;2.13;1.90;;;5.90;90.00;;;;;;5015315;28;20690;-72
2022/12/09 04:22:08;;;;;;;2.60;1.83;;;5.90;90.00;;;;;;5021109;28;20723;-72
2022/12/09 04:24:37;;;;;;;2.05;1.48;;;5.90;90.00;;;;;;5006988;28;20290;-72
2022/12/09 04:27:09;;;;;;;2.03;1.60;;;5.90;90.00;;;;;;5013128;28;20218;-72
2022/12/09 04:29:40;;;;;;;3.15;2.50;;;5.90;90.00;;;;;;5007943;28;20201;-72
2022/12/09 04:32:09;;;;;;;2.13;1.88;;;5.90;90.00;;;;;;5021152;28;20570;-75
2022/12/09 04:34:38;;;;;;;2.92;1.95;;;5.90;90.00;;;;;;5007843;28;20190;-73
2022/12/09 04:37:08;;;;;;;2.45;1.73;;;5.90;90.00;;;;;;5023827;28;20275;-72
2022/12/09 04:39:40;;;;;;;2.45;1.90;;;5.90;90.00;;;;;;5006512;28;20268;-72
2022/12/09 04:42:09;;;;;;;2.20;2.00;;;5.90;90.00;;;;;;5005748;28;20202;-72
2022/12/09 04:44:38;;;;;;;2.05;1.60;;;5.90;90.00;;;;;;5009696;28;20269;-72
2022/12/09 04:47:06;;;;;;;1.90;1.73;;;5.90;90.00;;;;;;5023689;28;20304;-74
2022/12/09 04:49:35;;;;;;;3.53;2.15;;;5.90;90.00;;;;;;5015182;28;20284;-73
2022/12/09 04:52:03;;;;;;;2.63;2.00;;;5.90;90.00;;;;;;5023992;28;20616;-72
2022/12/09 04:54:34;;;;;;;3.30;2.22;;;5.90;90.00;;;;;;5006485;28;20205;-73
2022/12/09 04:57:03;;;;;;;1.83;1.50;;;5.90;90.00;;;;;;5008170;28;20705;-72
2022/12/09 04:59:34;;;;;;;2.35;1.80;;;5.90;90.00;;;;;;5006214;28;20606;-75
2022/12/09 05:02:03;;;;;;;1.85;1.65;;;5.90;90.00;;;;;;5021782;28;20205;-72
2022/12/09 05:04:32;;;;;;;2.47;1.60;;;5.90;90.00;;;;;;5008899;28;20204;-72
2022/12/09 05:07:02;;;;;;;2.05;1.90;;;5.90;90.00;;;;;;5009204;28;20242;-73
2022/12/09 05:09:31;;;;;;;2.58;1.90;;;5.90;90.00;;;;;;5006551;28;20518;-73
2022/12/09 05:12:02;;;;;;;2.20;1.70;;;5.90;90.00;;;;;;5007786;28;20209;-74
2022/12/09 05:14:31;;;;;;;2.45;2.03;;;5.90;90.00;;;;;;5006972;28;20662;-73
2022/12/09 05:17:02;;;;;;;1.83;1.55;;;5.90;89.90;;;;;;5004952;28;20217;-73
2022/12/09 05:19:31;;;;;;;3.03;1.83;;;5.90;90.00;;;;;;5006934;28;20190;-74
2022/12/09 05:22:00;;;;;;;1.63;1.52;;;5.90;89.90;;;;;;5003604;28;20729;-73
2022/12/09 05:24:28;;;;;;;2.25;1.52;;;5.80;89.90;;;;;;5019114;28;20265;-72
2022/12/09 05:26:57;;;;;;;1.95;1.70;;;5.80;89.90;;;;;;5022860;28;20222;-73
2022/12/09 05:29:27;;;;;;;2.97;1.95;;;5.80;89.80;;;;;;5005982;28;20252;-73
2022/12/09 05:31:56;;;;;;;1.65;1.55;;;5.80;89.80;;;;;;5003238;28;20801;-72
2022/12/09 05:34:24;;;;;;;2.38;2.17;;;5.80;89.90;;;;;;5004922;28;20226;-73
2022/12/09 05:36:53;;;;;;;2.20;1.90;;;5.80;89.90;;;;;;4990657;28;20221;-73
2022/12/09 05:39:22;;;;;;;2.35;1.80;;;5.80;90.00;;;;;;4969081;28;20258;-73
2022/12/09 05:41:51;;;;;;;1.90;1.55;;;5.80;89.90;;;;;;4972846;28;20210;-73
2022/12/09 05:44:20;;;;;;;2.03;1.85;;;5.80;89.80;;;;;;4986414;28;20215;-74
2022/12/09 05:46:50;;;;;;;2.85;1.70;;;5.80;89.80;;;;;;4971089;28;20220;-74
2022/12/09 05:49:19;;;;;;;2.15;1.65;;;5.80;89.80;;;;;;4973031;28;20222;-73
2022/12/09 05:51:48;;;;;;;3.47;2.20;;;5.80;89.80;;;;;;4975859;28;20194;-74
2022/12/09 05:54:17;;;;;;;3.92;2.20;;;5.80;89.80;;;;;;4966011;28;20310;-73
2022/12/09 05:56:45;;;;;;;2.15;1.95;;;5.80;89.70;;;;;;4971180;28;20210;-74
2022/12/09 05:59:16;;;;;;;2.47;1.80;;;5.80;89.80;;;;;;5003960;28;20305;-73
2022/12/09 06:01:45;;;;;;;2.17;1.88;;;5.80;89.80;;;;;;5006539;28;20218;-74
2022/12/09 06:04:15;;;;;;;2.72;2.17;;;5.80;89.80;;;;;;5009242;28;20256;-74
2022/12/09 06:06:44;;;;;;;2.90;2.30;;;5.80;89.80;;;;;;4987268;28;20234;-73
2022/12/09 06:09:13;;;;;;;2.25;1.85;;;5.80;89.80;;;;;;4984933;28;20526;-74
2022/12/09 06:11:42;;;;;;;2.13;1.90;;;5.80;89.80;;;;;;4981696;28;20186;-74
2022/12/09 06:14:11;;;;;;;1.92;1.65;;;5.80;89.80;;;;;;4974989;28;20217;-74
2022/12/09 06:16:40;;;;;;;2.78;1.40;;;5.80;89.70;;;;;;4968690;28;20186;-73
2022/12/09 06:19:10;;;;;;;3.30;2.17;;;5.80;89.70;;;;;;4984082;28;20223;-74
2022/12/09 06:21:41;;;;;;;2.17;1.98;;;5.80;89.70;;;;;;4996160;28;20649;-73
2022/12/09 06:24:10;;;;;;;2.20;1.90;;;5.80;89.80;;;;;;5004322;28;20749;-73
2022/12/09 06:26:39;;;;;;;2.70;2.10;;;5.80;89.70;;;;;;5006619;28;20618;-73
2022/12/09 06:29:07;;;;;;;2.80;1.90;;;5.80;89.70;;;;;;4980855;28;20238;-73
2022/12/09 06:31:36;;;;;;;2.17;1.98;;;5.80;89.70;;;;;;4985540;28;20257;-73
2022/12/09 06:34:05;;;;;;;2.28;2.08;;;5.80;89.80;;;;;;4974594;28;20511;-74
2022/12/09 06:36:35;;;;;;;2.70;2.10;;;5.80;89.70;;;;;;4995091;28;20208;-72
2022/12/09 06:39:05;;;;;;;1.63;1.50;;;5.80;89.60;;;;;;4992056;28;20799;-73
2022/12/09 06:41:40;;;;;;;2.22;1.60;;;5.70;89.60;;;;;;4992622;28;20253;-72
2022/12/09 06:44:11;;;;;;;2.00;1.60;;;5.70;89.70;;;;;;4965765;28;20222;-73
2022/12/09 06:46:47;;;;;;;2.28;1.55;;;5.70;89.60;;;;;;4982318;28;20686;-74
2022/12/09 06:49:16;;;;;;;1.92;1.30;;;5.70;89.50;;;;;;4976859;28;20217;-74
2022/12/09 06:51:45;;;;;;;2.38;1.80;;;5.70;89.50;;;;;;4977210;28;20201;-73
2022/12/09 06:54:17;;;;;;;2.53;1.77;;;5.70;89.50;;;;;;4990842;28;20654;-73
2022/12/09 06:56:47;;;;;;;2.55;1.80;;;5.70;89.50;;;;;;4969955;28;20214;-72
2022/12/09 06:59:15;;;;;;;1.85;1.70;;;5.70;89.60;;;;;;4986303;28;20229;-72
2022/12/09 07:01:45;;;;;;;2.70;1.60;;;5.70;89.60;;;;;;4988635;28;20562;-74
2022/12/09 07:04:18;;;;;;;2.40;2.20;;;5.70;89.60;;;;;;4973408;28;20250;-74
2022/12/09 07:06:47;;;;;;;2.13;1.92;;;5.70;89.50;;;;;;4973191;28;20221;-74
2022/12/09 07:09:20;;;;;;;5.18;2.10;;;5.70;89.60;;;;;;4969476;28;20215;-72
2022/12/09 07:11:50;;;;;;;2.45;1.83;;;5.70;89.50;;;;;;4957051;28;20681;-72
2022/12/09 07:14:21;;;;;;;1.95;1.85;;;5.70;89.40;;;;;;4989849;28;20218;-73
2022/12/09 07:17:39;;;;;;;2.17;1.98;;;5.70;89.60;;;;;;4992508;28;20225;-72
2022/12/09 07:29:40;;;;;;;2.45;2.17;;;5.70;89.50;;;;;;4984630;28;20197;-72
2022/12/09 07:32:09;;;;;;;2.50;2.10;;;5.70;89.50;;;;;;4972864;28;20221;-73
2022/12/09 07:34:39;;;;;;;2.65;1.73;;;5.70;89.50;;;;;;4973471;28;20604;-72
2022/12/09 07:37:07;;;;;;;2.97;1.73;;;5.60;89.40;;;;;;4973319;28;20218;-73
2022/12/09 07:39:36;;;;;;;2.45;1.92;;;5.60;89.40;;;;;;4973348;28;20679;-72
2022/12/09 07:42:05;;;;;;;1.70;1.60;;;5.60;89.40;;;;;;4989830;28;20214;-74
2022/12/09 07:44:56;;;;;;;3.38;1.95;;;5.60;89.40;;;;;;4972263;28;20438;-72
2022/12/09 07:47:25;;;;;;;3.17;2.20;;;5.60;89.40;;;;;;4988060;28;20254;-73
2022/12/09 07:49:54;;;;;;;2.22;2.03;;;5.60;89.40;;;;;;4979676;28;20202;-73
2022/12/09 07:52:28;;;;;;;2.90;1.95;;;5.60;89.40;;;;;;4980678;28;20261;-73
2022/12/09 07:54:59;;;;;;;2.30;2.03;;;5.60;89.40;;;;;;4984154;28;20292;-72
2022/12/09 07:57:28;;;;;;;2.92;2.05;;;5.60;89.30;;;;;;4986972;28;20257;-73
2022/12/09 07:59:59;;;;;;;1.92;1.75;;;5.60;89.30;;;;;;4986988;28;20205;-73
2022/12/09 08:02:28;;;;;;;3.03;1.80;;;5.60;89.30;;;;;;5004969;28;20670;-74
2022/12/09 08:04:57;;;;;;;3.40;2.38;;;5.60;89.30;;;;;;4988784;28;20238;-74
2022/12/09 08:07:27;;;;;;;2.65;2.33;;;5.60;89.30;;;;;;5004947;28;20726;-73
2022/12/09 08:09:57;;;;;;;2.50;2.05;;;5.60;89.30;;;;;;4984799;28;20206;-73
2022/12/09 08:12:27;;;;;;;1.95;1.75;;;5.60;89.20;;;;;;5002839;28;20225;-72
2022/12/09 08:15:00;;;;;;;3.40;2.40;;;5.60;90.10;;;;;;4988282;28;20237;-72
2022/12/09 08:17:31;;;;;;;3.00;2.10;;;5.60;89.20;;;;;;4995280;28;20219;-73
2022/12/09 08:20:00;;;;;;;2.20;1.70;;;5.60;89.20;;;;;;5004473;28;20210;-72
2022/12/09 08:22:30;;;;;;;3.72;2.20;;;5.60;89.20;;;;;;4985274;28;20302;-71
2022/12/09 08:24:59;;;;;;;2.83;2.05;;;5.60;89.30;;;;;;4990289;28;20194;-74
2022/12/09 08:27:29;;;;;;;3.80;3.40;;;5.60;89.30;;;;;;4990370;28;20746;-72
2022/12/09 08:30:03;;;;;;;7.03;4.75;;;5.60;88.40;;;;;;4984973;28;20690;-73
2022/12/09 08:32:35;;;;;;;6.18;4.03;;;5.50;86.80;;;;;;5002608;28;20197;-68
2022/12/09 08:35:13;;;;;;;6.15;4.20;;;5.50;87.10;;;;;;5009386;28;20200;-67
2022/12/09 08:37:48;;;;;;;5.40;4.10;;;5.50;87.80;;;;;;4992896;28;20269;-66
2022/12/09 08:40:17;;;;;;;5.80;3.58;;;5.50;87.80;;;;;;4971699;28;20198;-71
2022/12/09 08:43:07;;;;;;;4.57;4.10;;;5.50;87.80;;;;;;4987282;28;20240;-72
2022/12/09 08:45:39;;;;;;;4.85;3.78;;;5.50;87.70;;;;;;4983525;28;21019;-74
2022/12/09 08:48:09;;;;;;;4.45;2.80;;;5.50;87.70;;;;;;4977642;28;20783;-72
2022/12/09 08:50:38;;;;;;;4.03;3.63;;;5.50;87.70;;;;;;4970793;28;20201;-74
2022/12/09 08:53:07;;;;;;;5.70;3.38;;;5.50;87.70;;;;;;4970989;28;20197;-73
2022/12/09 08:55:38;;;;;;;3.75;3.35;;;5.50;88.90;;;;;;4988768;28;20205;-72
2022/12/09 08:58:06;;;;;;;5.75;4.25;;;5.50;87.90;;;;;;4976751;28;20236;-73
2022/12/09 09:00:37;;;;;;;5.72;3.50;;;5.50;87.80;;;;;;4994097;28;20213;-74
2022/12/09 09:03:08;;;;;;;5.88;3.75;;;5.50;87.70;;;;;;4997396;28;20695;-73
2022/12/09 09:05:37;;;;;;;4.20;3.80;;;5.50;87.70;;;;;;4985887;28;20194;-72
2022/12/09 09:08:07;;;;;;;6.82;4.22;;;5.50;87.70;;;;;;4986412;28;20265;-71
2022/12/09 09:10:37;;;;;;;4.38;3.55;;;5.50;87.80;;;;;;4988109;28;20233;-72
2022/12/09 09:13:07;;;;;;;5.20;3.70;;;5.50;87.70;;;;;;4989968;28;21055;-75
2022/12/09 09:15:40;;;;;;;4.97;3.63;;;5.50;87.80;;;;;;4966489;28;20231;-72
2022/12/09 09:18:11;;;;;;;6.55;3.55;;;5.50;87.80;;;;;;4982147;28;20527;-72
2022/12/09 09:20:51;;;;;;;4.18;3.22;;;5.50;87.80;;;;;;4995391;28;20194;-72
2022/12/09 09:23:19;;;;;;;3.65;2.95;;;5.50;87.80;;;;;;4966966;28;20250;-74
2022/12/09 09:25:48;;;;;;;5.68;3.35;;;5.50;87.80;;;;;;4991160;28;20218;-72
2022/12/09 09:28:17;;;;;;;6.75;3.17;;;5.50;87.70;;;;;;4975977;28;20222;-72
2022/12/09 09:30:49;;;;;;;4.45;3.15;;;5.50;87.80;;;;;;4988738;28;20563;-74
2022/12/09 09:33:18;;;;;;;3.78;3.08;;;5.50;87.80;;;;;;5000921;28;20268;-73
2022/12/09 09:35:55;;;;;;;6.90;3.53;;;5.50;87.90;;;;;;4992511;28;20670;-72
2022/12/09 09:38:24;;;;;;;4.63;3.88;;;5.50;87.80;;;;;;4999549;28;20602;-72
2022/12/09 09:40:55;;;;;;;6.25;4.10;;;5.50;87.80;;;;;;4990882;28;20210;-73
2022/12/09 09:43:27;;;;;;;5.03;4.10;;;5.50;87.70;;;;;;4989392;28;20307;-72
2022/12/09 09:45:59;;;;;;;3.95;3.55;;;5.50;87.60;;;;;;4983877;28;20190;-75
2022/12/09 09:48:32;;;;;;;7.15;4.57;;;5.50;87.70;;;;;;4970109;28;20226;-72
2022/12/09 09:51:05;;;;;;;3.88;3.45;;;5.50;87.70;;;;;;4973377;28;20201;-75
2022/12/09 09:53:35;;;;;;;4.60;3.78;;;5.50;87.60;;;;;;4971238;28;20222;-73
2022/12/09 09:56:15;;;;;;;5.35;4.15;;;5.50;87.70;;;;;;4967818;28;20226;-73
2022/12/09 09:58:56;;;;;;;4.15;3.38;;;5.50;87.80;;;;;;4971911;28;20769;-73
2022/12/09 10:01:32;;;;;;;5.03;3.30;;;5.50;87.70;;;;;;4972443;28;20577;-73
2022/12/09 10:04:09;;;;;;;5.93;3.90;;;5.50;87.70;;;;;;4972221;28;20228;-75
2022/12/09 10:06:46;;;;;;;4.10;3.53;;;5.50;87.70;;;;;;4972439;28;20246;-73
2022/12/09 10:09:21;;;;;;;8.27;4.78;;;5.50;87.70;;;;;;4985799;28;20232;-74
2022/12/09 10:11:59;;;;;;;4.35;3.88;;;5.50;87.70;;;;;;4981126;28;20286;-73
2022/12/09 10:14:40;;;;;;;3.53;3.22;;;5.50;87.70;;;;;;4989806;28;20241;-74
2022/12/09 10:17:21;;;;;;;4.85;3.20;;;5.50;87.70;;;;;;4989819;28;20229;-74
2022/12/09 10:19:55;;;;;;;3.97;3.55;;;5.50;87.70;;;;;;4989483;28;20190;-73
2022/12/09 10:22:29;;;;;;;3.38;2.63;;;5.50;87.80;;;;;;4985110;28;20230;-73
2022/12/09 10:24:59;;;;;;;8.13;3.55;;;5.50;87.80;;;;;;4969029;28;20558;-73
2022/12/09 10:27:33;;;;;;;4.30;3.47;;;5.40;87.60;;;;;;4969893;28;20246;-74
2022/12/09 10:30:06;;;;;;;5.35;4.03;;;5.50;87.80;;;;;;4986458;28;20313;-72
2022/12/09 10:32:38;;;;;;;4.53;3.15;;;5.40;87.70;;;;;;4953810;28;20765;-74
2022/12/09 10:35:14;;;;;;;4.10;3.45;;;5.50;87.80;;;;;;4974058;28;20249;-72
2022/12/09 10:37:44;;;;;;;4.15;3.15;;;5.40;87.70;;;;;;4964999;28;20222;-74
2022/12/09 10:40:25;;;;;;;3.85;3.10;;;5.40;87.80;;;;;;4959052;28;20203;-74
2022/12/09 10:45:47;;;;;;;4.05;3.25;;;5.40;87.60;;;;;;4985209;28;20199;-74
2022/12/09 10:48:40;;;;;;;4.20;3.25;;;5.40;87.70;;;;;;4984940;28;20229;-73
2022/12/09 10:51:14;;;;;;;5.07;3.60;;;5.40;87.70;;;;;;4986548;28;20617;-75
2022/12/09 10:53:49;;;;;;;3.88;3.47;;;5.40;87.70;;;;;;4996917;28;20225;-73
2022/12/09 10:56:22;;;;;;;3.85;3.05;;;5.40;87.70;;;;;;4989657;28;20221;-73
2022/12/09 10:59:09;;;;;;;3.40;3.10;;;5.40;87.70;;;;;;5010063;28;20218;-74
2022/12/09 11:01:50;;;;;;;6.40;3.97;;;5.50;87.70;;;;;;4992497;28;20205;-74
2022/12/09 11:04:24;;;;;;;3.25;2.50;;;5.40;87.70;;;;;;4992546;28;20644;-74
2022/12/09 11:06:56;;;;;;;3.08;2.78;;;5.40;87.70;;;;;;4993603;28;20609;-74
2022/12/09 11:09:30;;;;;;;3.42;2.85;;;5.40;87.60;;;;;;5002155;28;20225;-73
2022/12/09 11:12:00;;;;;;;3.03;2.47;;;5.40;87.70;;;;;;5011087;28;20232;-73
2022/12/09 11:14:34;;;;;;;4.40;3.05;;;5.40;87.80;;;;;;5008223;28;20288;-74
2022/12/09 11:17:15;;;;;;;4.10;3.30;;;5.40;87.80;;;;;;4991420;28;20694;-74
2022/12/09 11:19:47;;;;;;;3.15;2.85;;;5.40;87.70;;;;;;4980988;28;20198;-75
2022/12/09 11:22:27;;;;;;;3.60;2.65;;;5.40;88.90;;;;;;4988995;28;20241;-74
2022/12/09 11:25:15;;;;;;;3.95;2.90;;;5.40;87.80;;;;;;4986989;28;20220;-73
2022/12/09 11:27:50;;;;;;;4.53;3.45;;;5.40;87.60;;;;;;4980985;28;20633;-73
2022/12/09 11:30:20;;;;;;;3.55;2.55;;;5.40;87.70;;;;;;4977283;28;20197;-74
2022/12/09 11:32:57;;;;;;;3.10;2.80;;;5.40;87.80;;;;;;5009705;28;20316;-73
2022/12/09 11:35:50;;;;;;;3.92;2.63;;;5.40;87.70;;;;;;4992101;28;20197;-73
2022/12/09 11:38:35;;;;;;;3.60;2.83;;;5.40;87.80;;;;;;4991314;28;20225;-73
2022/12/09 11:44:20;;;;;;;3.08;2.30;;;5.40;87.70;;;;;;4985563;28;20222;-73
2022/12/09 11:46:57;;;;;;;3.63;2.40;;;5.40;87.70;;;;;;5005052;28;20245;-73
2022/12/09 11:49:27;;;;;;;3.92;3.33;;;5.40;87.70;;;;;;4986145;28;20217;-75
2022/12/09 11:52:03;;;;;;;3.40;2.95;;;5.40;87.70;;;;;;4991164;28;20256;-73
2022/12/09 11:54:38;;;;;;;3.25;2.80;;;5.40;87.70;;;;;;5007439;28;20301;-73
2022/12/09 11:57:19;;;;;;;5.57;3.08;;;5.40;87.70;;;;;;5014929;28;20259;-74
2022/12/09 11:59:53;;;;;;;3.03;2.45;;;5.40;87.70;;;;;;5006305;28;20524;-75
2022/12/09 12:02:30;;;;;;;3.85;3.20;;;5.40;87.70;;;;;;5005090;28;20249;-69
2022/12/09 12:05:02;;;;;;;4.50;3.28;;;5.40;87.70;;;;;;5009243;28;20514;-71
2022/12/09 12:07:38;;;;;;;5.55;3.55;;;5.40;87.70;;;;;;5007791;28;20622;-71
2022/12/09 12:10:16;;;;;;;2.42;2.22;;;5.40;87.70;;;;;;4999932;28;20205;-70
2022/12/09 12:12:53;;;;;;;4.80;3.15;;;5.40;87.70;;;;;;5019447;28;20589;-71
2022/12/09 12:15:27;;;;;;;3.33;3.03;;;5.40;87.80;;;;;;5002332;28;20205;-69
2022/12/09 12:17:57;;;;;;;3.10;2.70;;;5.40;87.80;;;;;;5009324;28;20240;-69
2022/12/09 12:20:36;;;;;;;3.20;2.55;;;5.40;87.80;;;;;;5010262;28;20273;-71
2022/12/09 12:23:21;;;;;;;3.22;2.92;;;5.40;87.80;;;;;;5006330;28;20696;-71
2022/12/09 12:25:59;;;;;;;4.97;3.20;;;5.40;87.70;;;;;;4999883;28;20198;-70
2022/12/09 12:28:56;;;;;;;3.03;2.72;;;5.30;87.70;;;;;;5005113;28;20229;-70
2022/12/09 12:31:57;;;;;;;3.88;2.60;;;5.40;87.80;;;;;;5011022;28;20197;-70
2022/12/09 12:34:34;;;;;;;4.60;3.45;;;5.30;87.70;;;;;;5004774;28;20784;-70
2022/12/09 12:37:20;;;;;;;4.18;3.15;;;5.40;87.80;;;;;;5023074;28;20279;-69
2022/12/09 12:39:59;;;;;;;3.78;3.17;;;5.30;87.70;;;;;;5002605;28;20223;-69
2022/12/09 12:42:36;;;;;;;4.70;3.45;;;5.30;87.70;;;;;;5009451;28;20233;-70
2022/12/09 12:48:32;;;;;;;4.72;3.30;;;5.30;87.80;;;;;;4967898;28;20223;-71
2022/12/09 12:51:10;;;;;;;3.50;2.70;;;5.30;87.70;;;;;;4966359;28;20262;-69
2022/12/09 12:53:47;;;;;;;3.97;3.55;;;5.30;87.70;;;;;;4983156;28;20217;-69
2022/12/09 12:56:23;;;;;;;3.47;2.88;;;5.30;87.70;;;;;;5009655;28;20205;-69
2022/12/09 12:59:05;;;;;;;4.63;3.58;;;5.40;87.80;;;;;;5004153;28;20302;-69
2022/12/09 13:01:36;;;;;;;3.08;2.78;;;5.40;87.80;;;;;;5021863;28;20569;-71
2022/12/09 13:04:16;;;;;;;9.18;5.35;;;5.30;87.70;;;;;;5014834;28;20226;-70
2022/12/09 13:06:50;;;;;;;4.93;3.60;;;5.30;88.40;;;;;;5008155;28;20213;-70
2022/12/09 13:09:23;;;;;;;9.25;3.88;;;5.30;88.30;;;;;;5002604;28;20245;-70
2022/12/09 13:12:10;;;;;;;6.80;5.50;;;5.30;88.20;;;;;;5004156;28;20221;-74
2022/12/09 13:14:52;;;;;;;6.82;4.53;;;5.30;88.20;;;;;;5006231;28;20674;-73
2022/12/09 13:17:25;;;;;;;5.38;3.90;;;5.30;88.10;;;;;;5013046;28;20252;-73
2022/12/09 13:19:57;;;;;;;4.13;3.70;;;5.30;88.10;;;;;;5009716;28;20209;-75
2022/12/09 13:22:40;;;;;;;6.22;4.32;;;5.30;88.10;;;;;;5010836;28;20517;-70
2022/12/09 13:25:18;;;;;;;6.03;5.05;;;5.30;88.40;;;;;;5007847;28;20240;-69
2022/12/09 13:27:54;;;;;;;6.50;4.25;;;5.30;88.20;;;;;;5020972;28;20210;-70
2022/12/09 13:30:27;;;;;;;4.80;4.20;;;5.30;88.20;;;;;;5004815;28;20284;-69
2022/12/09 13:33:13;;;;;;;6.40;3.92;;;5.30;88.10;;;;;;5003613;28;20237;-69
2022/12/09 13:35:48;;;;;;;7.28;5.15;;;5.30;88.10;;;;;;5005716;28;20205;-70
2022/12/09 13:38:26;;;;;;;9.90;7.30;;;5.30;88.20;;;;;;5000805;28;20221;-70
2022/12/09 13:40:55;;;;;;;8.30;5.70;;;5.30;88.40;;;;;;5008259;28;20202;-69
2022/12/09 13:43:27;;;;;;;9.20;6.23;;;5.30;88.40;;;;;;5004490;28;20662;-70
2022/12/09 13:45:57;;;;;;;10.77;7.00;;;5.30;89.20;;;;;;5003994;28;20469;-70